Latest Weather Observations for Busselton Jetty

IDW60801

Issued at 12:32 pm WST Tuesday 7 July 2015 (issued every 30 minutes, with the page automatically refreshed every 10 minutes)

About weather observations | Map of weather stations | Latest weather observations for WA | Other Formats
Station Details ID: 009937 Name: BUSSELTON JETTY Lat: -33.63 Lon: 115.34 Height: 3.0 m
Data from the previous 72 hours. | See also: Recent months for locations in Western Australia
Date/Time
WST
Temp
°C
App
Temp
°C
Dew
Point
Rel
Hum
%
Delta-T
°C
Wind Press
QNH
hPa
Press
MSL
hPa
Rain
since 9 am
mm
Dir
 
Spd
km/h
Gust
km/h
Spd
kts
Gust
kts
07/12:30pm - - - - - NW 30 35 16 19 - - -
07/12:00pm - - - - - WNW 32 37 17 20 - - -
07/11:30am - - - - - NW 26 32 14 17 - - -
07/11:00am - - - - - NW 20 26 11 14 - - -
07/10:30am - - - - - NW 24 30 13 16 - - -
07/10:00am - - - - - NW 24 28 13 15 - - -
07/09:30am - - - - - NW 13 17 7 9 - - -
07/09:00am - - - - - WNW 17 19 9 10 - - -
07/08:30am - - - - - NW 19 24 10 13 - - -
07/08:00am - - - - - NW 19 22 10 12 - - -
07/07:30am - - - - - NW 15 17 8 9 - - -
07/07:00am - - - - - NNW 17 20 9 11 - - -
07/06:30am - - - - - NW 19 24 10 13 - - -
07/06:00am - - - - - NW 22 26 12 14 - - -
07/05:30am - - - - - NW 20 26 11 14 - - -
07/05:00am - - - - - NNW 19 24 10 13 - - -
07/04:30am - - - - - NW 20 22 11 12 - - -
07/04:00am - - - - - NW 22 26 12 14 - - -
07/03:30am - - - - - WNW 19 28 10 15 - - -
07/03:00am - - - - - NW 20 24 11 13 - - -
07/02:30am - - - - - NW 20 24 11 13 - - -
07/02:00am - - - - - NW 22 28 12 15 - - -
07/01:30am - - - - - NW 28 33 15 18 - - -
07/01:00am - - - - - NNW 32 37 17 20 - - -
07/12:30am - - - - - NNW 30 37 16 20 - - -
07/12:00am - - - - - NW 19 22 10 12 - - -
 
Date/Time
WST
Temp
°C
App
Temp
°C
Dew
Point
Rel
Hum
%
Delta-T
°C
Wind Press
QNH
hPa
Press
MSL
hPa
Rain
since 9 am
mm
Dir
 
Spd
km/h
Gust
km/h
Spd
kts
Gust
kts
06/11:30pm - - - - - NW 24 30 13 16 - - -
06/11:00pm - - - - - NW 26 30 14 16 - - -
06/10:30pm - - - - - NW 26 30 14 16 - - -
06/10:00pm - - - - - NW 28 32 15 17 - - -
06/09:30pm - - - - - NW 26 32 14 17 - - -
06/09:00pm - - - - - NW 22 30 12 16 - - -
06/08:30pm - - - - - NW 20 24 11 13 - - -
06/08:00pm - - - - - NW 17 19 9 10 - - -
06/07:30pm - - - - - WNW 24 32 13 17 - - -
06/07:00pm - - - - - WNW 15 17 8 9 - - -
06/06:30pm - - - - - WNW 15 19 8 10 - - -
06/06:00pm - - - - - W 20 22 11 12 - - -
06/05:30pm - - - - - WNW 26 30 14 16 - - -
06/05:00pm - - - - - NW 22 26 12 14 - - -
06/04:30pm - - - - - NW 15 17 8 9 - - -
06/04:00pm - - - - - WNW 20 26 11 14 - - -
06/03:30pm - - - - - WNW 22 28 12 15 - - -
06/03:00pm - - - - - NW 24 28 13 15 - - -
06/02:30pm - - - - - NW 28 35 15 19 - - -
06/02:00pm - - - - - N 24 26 13 14 - - -
06/01:30pm - - - - - N 22 26 12 14 - - -
06/01:00pm - - - - - NNW 26 33 14 18 - - -
06/12:30pm - - - - - NNW 20 24 11 13 - - -
06/12:00pm - - - - - N 22 28 12 15 - - -
06/11:30am - - - - - NNE 22 26 12 14 - - -
06/11:00am - - - - - NNE 28 32 15 17 - - -
06/10:30am - - - - - NNE 30 33 16 18 - - -
06/10:00am - - - - - NNE 24 35 13 19 - - -
06/09:30am - - - - - N 20 28 11 15 - - -
06/09:00am - - - - - N 15 17 8 9 - - -
06/08:30am - - - - - NNE 19 26 10 14 - - -
06/08:00am - - - - - E 30 37 16 20 - - -
06/07:30am - - - - - E 28 32 15 17 - - -
06/07:00am - - - - - E 26 30 14 16 - - -
06/06:30am - - - - - E 24 28 13 15 - - -
06/06:00am - - - - - E 24 26 13 14 - - -
06/05:30am - - - - - E 20 24 11 13 - - -
06/05:00am - - - - - E 17 20 9 11 - - -
06/04:30am - - - - - E 17 20 9 11 - - -
06/04:00am - - - - - E 17 19 9 10 - - -
06/03:30am - - - - - ESE 15 17 8 9 - - -
06/03:00am - - - - - ESE 15 17 8 9 - - -
06/02:30am - - - - - ESE 15 17 8 9 - - -
06/02:00am - - - - - ESE 13 15 7 8 - - -
06/01:30am - - - - - ESE 11 15 6 8 - - -
06/01:00am - - - - - E 13 15 7 8 - - -
06/12:30am - - - - - ESE 11 13 6 7 - - -
06/12:00am - - - - - ESE 11 15 6 8 - - -
 
Date/Time
WST
Temp
°C
App
Temp
°C
Dew
Point
Rel
Hum
%
Delta-T
°C
Wind Press
QNH
hPa
Press
MSL
hPa
Rain
since 9 am
mm
Dir
 
Spd
km/h
Gust
km/h
Spd
kts
Gust
kts
05/11:30pm - - - - - SE 11 13 6 7 - - -
05/11:00pm - - - - - SSE 11 13 6 7 - - -
05/10:30pm - - - - - SSE 9 11 5 6 - - -
05/10:00pm - - - - - WSW 7 9 4 5 - - -
05/09:30pm - - - - - WSW 7 9 4 5 - - -
05/09:00pm - - - - - W 9 11 5 6 - - -
05/08:30pm - - - - - WNW 13 13 7 7 - - -
05/08:00pm - - - - - WNW 13 17 7 9 - - -
05/07:30pm - - - - - NW 11 15 6 8 - - -
05/07:00pm - - - - - NW 17 20 9 11 - - -
05/06:30pm - - - - - NW 9 11 5 6 - - -
05/06:00pm - - - - - WNW 11 13 6 7 - - -
05/05:30pm - - - - - WNW 13 17 7 9 - - -
05/05:00pm - - - - - NNW 17 22 9 12 - - -
05/04:30pm - - - - - NNW 17 22 9 12 - - -
05/04:00pm - - - - - N 13 17 7 9 - - -
05/03:30pm - - - - - N 17 19 9 10 - - -
05/03:00pm - - - - - N 17 19 9 10 - - -
05/02:30pm - - - - - N 17 19 9 10 - - -
05/02:00pm - - - - - N 15 19 8 10 - - -
05/01:30pm - - - - - N 13 15 7 8 - - -
05/01:00pm - - - - - N 11 13 6 7 - - -
05/12:30pm - - - - - NNE 7 7 4 4 - - -
05/12:00pm - - - - - NNE 7 9 4 5 - - -
05/11:30am - - - - - ENE 7 7 4 4 - - -
05/11:00am - - - - - E 9 11 5 6 - - -
05/10:30am - - - - - ESE 9 11 5 6 - - -
05/10:00am - - - - - ESE 11 13 6 7 - - -
05/09:30am - - - - - ESE 11 11 6 6 - - -
05/09:00am - - - - - SE 11 13 6 7 - - -
05/08:30am - - - - - SSE 13 17 7 9 - - -
05/08:00am - - - - - SSE 13 13 7 7 - - -
05/07:30am - - - - - S 11 15 6 8 - - -
05/07:00am - - - - - SSE 11 13 6 7 - - -
05/06:30am - - - - - S 11 13 6 7 - - -
05/06:00am - - - - - S 11 13 6 7 - - -
05/05:30am - - - - - SSW 11 11 6 6 - - -
05/05:00am - - - - - SSE 15 17 8 9 - - -
05/04:30am - - - - - SSE 15 17 8 9 - - -
05/04:00am - - - - - S 13 13 7 7 - - -
05/03:30am - - - - - S 11 13 6 7 - - -
05/03:00am - - - - - S 11 13 6 7 - - -
05/02:30am - - - - - SSW 11 15 6 8 - - -
05/02:00am - - - - - SSW 9 13 5 7 - - -
05/01:30am - - - - - SSW 13 17 7 9 - - -
05/01:00am - - - - - SSW 15 19 8 10 - - -
05/12:30am - - - - - WNW 24 32 13 17 - - -
05/12:00am - - - - - NW 26 32 14 17 - - -
 
Date/Time
WST
Temp
°C
App
Temp
°C
Dew
Point
Rel
Hum
%
Delta-T
°C
Wind Press
QNH
hPa
Press
MSL
hPa
Rain
since 9 am
mm
Dir
 
Spd
km/h
Gust
km/h
Spd
kts
Gust
kts
04/11:30pm - - - - - NW 22 28 12 15 - - -
04/11:00pm - - - - - NNW 20 24 11 13 - - -
04/10:30pm - - - - - WNW 19 26 10 14 - - -
04/10:00pm - - - - - WNW 28 32 15 17 - - -
04/09:30pm - - - - - NW 20 26 11 14 - - -
04/09:00pm - - - - - NW 20 24 11 13 - - -
04/08:30pm - - - - - NW 24 26 13 14 - - -
04/08:00pm - - - - - NW 26 30 14 16 - - -
04/07:30pm - - - - - WNW 28 33 15 18 - - -
04/07:00pm - - - - - WNW 17 22 9 12 - - -
04/06:30pm - - - - - WNW 17 20 9 11 - - -
04/06:00pm - - - - - NW 22 24 12 13 - - -
04/05:30pm - - - - - NW 19 22 10 12 - - -
04/05:00pm - - - - - NNW 15 17 8 9 - - -
04/04:30pm - - - - - NW 13 17 7 9 - - -
04/04:00pm - - - - - NW 13 15 7 8 - - -
04/03:30pm - - - - - WNW 24 32 13 17 - - -
04/03:00pm - - - - - WNW 33 37 18 20 - - -
04/02:30pm - - - - - WNW 32 37 17 20 - - -
04/02:00pm - - - - - NW 30 33 16 18 - - -
04/01:30pm - - - - - NW 28 35 15 19 - - -
04/01:00pm - - - - - NW 26 30 14 16 - - -

Other Formats:

Comma delimited format used in spreadsheet applications
http://www.bom.gov.au/fwo/IDW60801/IDW60801.95602.axf

JavaScript Object Notation format (JSON) in row-major order
http://www.bom.gov.au/fwo/IDW60801/IDW60801.95602.json